sensor_id;sensor_type;location;lat;lon;timestamp;P1;durP1;ratioP1;P2;durP2;ratioP2
41829;SDS011;38614;43.472;23.936;2024-02-26T00:02:07;39.80;;;15.20;;
41829;SDS011;38614;43.472;23.936;2024-02-26T00:04:55;36.85;;;16.88;;
41829;SDS011;38614;43.472;23.936;2024-02-26T00:07:43;43.83;;;18.25;;
41829;SDS011;38614;43.472;23.936;2024-02-26T00:10:32;30.80;;;17.55;;
41829;SDS011;38614;43.472;23.936;2024-02-26T00:13:20;32.65;;;16.52;;
41829;SDS011;38614;43.472;23.936;2024-02-26T00:16:09;31.85;;;15.88;;
41829;SDS011;38614;43.472;23.936;2024-02-26T00:18:57;27.40;;;13.43;;
41829;SDS011;38614;43.472;23.936;2024-02-26T00:21:45;29.35;;;14.85;;
41829;SDS011;38614;43.472;23.936;2024-02-26T00:24:32;33.75;;;16.23;;
41829;SDS011;38614;43.472;23.936;2024-02-26T00:27:20;38.38;;;15.57;;
41829;SDS011;38614;43.472;23.936;2024-02-26T00:30:08;37.90;;;16.73;;
41829;SDS011;38614;43.472;23.936;2024-02-26T00:32:57;37.47;;;16.65;;
41829;SDS011;38614;43.472;23.936;2024-02-26T00:35:44;37.22;;;17.55;;
41829;SDS011;38614;43.472;23.936;2024-02-26T00:38:32;38.08;;;17.30;;
41829;SDS011;38614;43.472;23.936;2024-02-26T00:41:20;40.38;;;15.63;;
41829;SDS011;38614;43.472;23.936;2024-02-26T00:44:08;33.80;;;17.00;;
41829;SDS011;38614;43.472;23.936;2024-02-26T00:46:56;31.38;;;16.45;;
41829;SDS011;38614;43.472;23.936;2024-02-26T00:49:44;34.08;;;15.80;;
41829;SDS011;38614;43.472;23.936;2024-02-26T00:52:31;40.63;;;18.73;;
41829;SDS011;38614;43.472;23.936;2024-02-26T00:55:19;34.60;;;16.63;;
41829;SDS011;38614;43.472;23.936;2024-02-26T00:58:07;37.35;;;18.45;;
41829;SDS011;38614;43.472;23.936;2024-02-26T01:00:55;32.83;;;15.52;;
41829;SDS011;38614;43.472;23.936;2024-02-26T01:03:42;37.92;;;17.58;;
41829;SDS011;38614;43.472;23.936;2024-02-26T01:06:30;30.65;;;15.73;;
41829;SDS011;38614;43.472;23.936;2024-02-26T01:09:18;26.13;;;13.95;;
41829;SDS011;38614;43.472;23.936;2024-02-26T01:12:06;28.52;;;14.30;;
41829;SDS011;38614;43.472;23.936;2024-02-26T01:14:55;42.03;;;15.82;;
41829;SDS011;38614;43.472;23.936;2024-02-26T01:17:43;33.45;;;13.75;;
41829;SDS011;38614;43.472;23.936;2024-02-26T01:20:31;23.88;;;12.68;;
41829;SDS011;38614;43.472;23.936;2024-02-26T01:23:19;26.75;;;12.85;;
41829;SDS011;38614;43.472;23.936;2024-02-26T01:26:06;22.17;;;9.80;;
41829;SDS011;38614;43.472;23.936;2024-02-26T01:28:54;18.90;;;9.82;;
41829;SDS011;38614;43.472;23.936;2024-02-26T01:31:43;21.10;;;9.25;;
41829;SDS011;38614;43.472;23.936;2024-02-26T01:34:30;20.58;;;9.43;;
41829;SDS011;38614;43.472;23.936;2024-02-26T01:37:18;21.40;;;10.95;;
41829;SDS011;38614;43.472;23.936;2024-02-26T01:40:06;16.88;;;8.63;;
41829;SDS011;38614;43.472;23.936;2024-02-26T01:42:59;15.25;;;8.55;;
41829;SDS011;38614;43.472;23.936;2024-02-26T01:45:48;19.77;;;7.95;;
41829;SDS011;38614;43.472;23.936;2024-02-26T01:48:35;16.02;;;7.70;;
41829;SDS011;38614;43.472;23.936;2024-02-26T01:51:23;12.70;;;7.47;;
41829;SDS011;38614;43.472;23.936;2024-02-26T01:54:11;14.73;;;7.35;;
41829;SDS011;38614;43.472;23.936;2024-02-26T01:56:59;22.10;;;8.93;;
41829;SDS011;38614;43.472;23.936;2024-02-26T01:59:47;18.10;;;9.05;;
41829;SDS011;38614;43.472;23.936;2024-02-26T02:02:35;18.08;;;10.10;;
41829;SDS011;38614;43.472;23.936;2024-02-26T02:05:23;19.40;;;10.27;;
41829;SDS011;38614;43.472;23.936;2024-02-26T02:08:12;15.73;;;10.20;;
41829;SDS011;38614;43.472;23.936;2024-02-26T02:11:01;14.32;;;9.15;;
41829;SDS011;38614;43.472;23.936;2024-02-26T02:13:49;36.00;;;12.25;;
41829;SDS011;38614;43.472;23.936;2024-02-26T02:16:37;29.92;;;14.35;;
41829;SDS011;38614;43.472;23.936;2024-02-26T02:19:24;43.28;;;15.40;;
41829;SDS011;38614;43.472;23.936;2024-02-26T02:22:12;35.22;;;15.25;;
41829;SDS011;38614;43.472;23.936;2024-02-26T02:25:00;52.00;;;17.38;;
41829;SDS011;38614;43.472;23.936;2024-02-26T02:27:47;42.17;;;18.33;;
41829;SDS011;38614;43.472;23.936;2024-02-26T02:30:36;36.67;;;17.33;;
41829;SDS011;38614;43.472;23.936;2024-02-26T02:33:25;32.40;;;16.35;;
41829;SDS011;38614;43.472;23.936;2024-02-26T02:36:13;33.97;;;17.98;;
41829;SDS011;38614;43.472;23.936;2024-02-26T02:39:00;36.88;;;18.70;;
41829;SDS011;38614;43.472;23.936;2024-02-26T02:41:48;30.30;;;15.38;;
41829;SDS011;38614;43.472;23.936;2024-02-26T02:44:36;29.80;;;16.58;;
41829;SDS011;38614;43.472;23.936;2024-02-26T02:47:25;27.58;;;15.52;;
41829;SDS011;38614;43.472;23.936;2024-02-26T02:50:21;31.95;;;17.08;;
41829;SDS011;38614;43.472;23.936;2024-02-26T02:53:08;37.20;;;17.58;;
41829;SDS011;38614;43.472;23.936;2024-02-26T02:55:56;31.58;;;16.98;;
41829;SDS011;38614;43.472;23.936;2024-02-26T02:58:44;43.05;;;17.95;;
41829;SDS011;38614;43.472;23.936;2024-02-26T03:01:32;41.00;;;19.17;;
41829;SDS011;38614;43.472;23.936;2024-02-26T03:04:20;39.35;;;18.67;;
41829;SDS011;38614;43.472;23.936;2024-02-26T03:07:07;28.90;;;16.85;;
41829;SDS011;38614;43.472;23.936;2024-02-26T03:09:55;30.63;;;16.80;;
41829;SDS011;38614;43.472;23.936;2024-02-26T03:12:43;25.83;;;14.73;;
41829;SDS011;38614;43.472;23.936;2024-02-26T03:15:31;27.92;;;14.27;;
41829;SDS011;38614;43.472;23.936;2024-02-26T03:18:18;31.90;;;15.20;;
41829;SDS011;38614;43.472;23.936;2024-02-26T03:21:06;26.08;;;14.02;;
41829;SDS011;38614;43.472;23.936;2024-02-26T03:23:54;22.65;;;12.73;;
41829;SDS011;38614;43.472;23.936;2024-02-26T03:26:43;27.17;;;13.80;;
41829;SDS011;38614;43.472;23.936;2024-02-26T03:29:30;27.95;;;13.68;;
41829;SDS011;38614;43.472;23.936;2024-02-26T03:32:18;30.63;;;14.45;;
41829;SDS011;38614;43.472;23.936;2024-02-26T03:35:06;26.23;;;13.55;;
41829;SDS011;38614;43.472;23.936;2024-02-26T03:37:55;25.38;;;14.20;;
41829;SDS011;38614;43.472;23.936;2024-02-26T03:40:43;28.00;;;13.82;;
41829;SDS011;38614;43.472;23.936;2024-02-26T03:43:31;31.60;;;14.70;;
41829;SDS011;38614;43.472;23.936;2024-02-26T03:46:19;26.83;;;14.02;;
41829;SDS011;38614;43.472;23.936;2024-02-26T03:49:08;31.80;;;16.95;;
41829;SDS011;38614;43.472;23.936;2024-02-26T03:51:56;29.65;;;14.55;;
41829;SDS011;38614;43.472;23.936;2024-02-26T03:54:43;38.00;;;17.40;;
41829;SDS011;38614;43.472;23.936;2024-02-26T03:57:31;30.58;;;16.65;;
41829;SDS011;38614;43.472;23.936;2024-02-26T04:00:19;38.70;;;16.88;;
41829;SDS011;38614;43.472;23.936;2024-02-26T04:03:09;43.30;;;19.42;;
41829;SDS011;38614;43.472;23.936;2024-02-26T04:05:59;40.22;;;19.83;;
41829;SDS011;38614;43.472;23.936;2024-02-26T04:08:48;41.42;;;23.63;;
41829;SDS011;38614;43.472;23.936;2024-02-26T04:11:36;43.00;;;25.45;;
41829;SDS011;38614;43.472;23.936;2024-02-26T04:14:24;44.70;;;25.27;;
41829;SDS011;38614;43.472;23.936;2024-02-26T04:17:13;44.42;;;21.65;;
41829;SDS011;38614;43.472;23.936;2024-02-26T04:20:01;25.90;;;17.58;;
41829;SDS011;38614;43.472;23.936;2024-02-26T04:22:51;37.65;;;17.85;;
41829;SDS011;38614;43.472;23.936;2024-02-26T04:25:39;36.17;;;16.92;;
41829;SDS011;38614;43.472;23.936;2024-02-26T04:28:31;31.27;;;16.15;;
41829;SDS011;38614;43.472;23.936;2024-02-26T04:31:19;34.22;;;17.85;;
41829;SDS011;38614;43.472;23.936;2024-02-26T04:34:06;36.00;;;20.08;;
41829;SDS011;38614;43.472;23.936;2024-02-26T04:36:56;36.90;;;19.50;;
41829;SDS011;38614;43.472;23.936;2024-02-26T04:39:44;37.67;;;19.02;;
41829;SDS011;38614;43.472;23.936;2024-02-26T04:42:36;35.42;;;20.20;;
41829;SDS011;38614;43.472;23.936;2024-02-26T04:45:24;40.20;;;21.20;;
41829;SDS011;38614;43.472;23.936;2024-02-26T04:48:12;40.15;;;19.85;;
41829;SDS011;38614;43.472;23.936;2024-02-26T04:51:00;35.55;;;18.25;;
41829;SDS011;38614;43.472;23.936;2024-02-26T04:53:48;33.25;;;17.33;;
41829;SDS011;38614;43.472;23.936;2024-02-26T04:56:36;27.27;;;14.73;;
41829;SDS011;38614;43.472;23.936;2024-02-26T04:59:23;33.25;;;17.05;;
41829;SDS011;38614;43.472;23.936;2024-02-26T05:02:11;29.88;;;16.35;;
41829;SDS011;38614;43.472;23.936;2024-02-26T05:04:59;33.30;;;16.95;;
41829;SDS011;38614;43.472;23.936;2024-02-26T05:07:48;29.23;;;16.33;;
41829;SDS011;38614;43.472;23.936;2024-02-26T05:10:36;31.92;;;17.63;;
41829;SDS011;38614;43.472;23.936;2024-02-26T05:13:27;30.00;;;18.00;;
41829;SDS011;38614;43.472;23.936;2024-02-26T05:16:14;36.13;;;19.20;;
41829;SDS011;38614;43.472;23.936;2024-02-26T05:19:03;37.83;;;18.35;;
41829;SDS011;38614;43.472;23.936;2024-02-26T05:21:51;39.13;;;18.55;;
41829;SDS011;38614;43.472;23.936;2024-02-26T05:24:57;38.65;;;18.17;;
41829;SDS011;38614;43.472;23.936;2024-02-26T05:27:44;38.28;;;18.90;;
41829;SDS011;38614;43.472;23.936;2024-02-26T05:30:33;38.30;;;18.42;;
41829;SDS011;38614;43.472;23.936;2024-02-26T05:33:21;51.15;;;22.35;;
41829;SDS011;38614;43.472;23.936;2024-02-26T05:36:09;47.17;;;22.73;;
41829;SDS011;38614;43.472;23.936;2024-02-26T05:38:56;37.75;;;20.15;;
41829;SDS011;38614;43.472;23.936;2024-02-26T05:41:45;36.28;;;19.92;;
41829;SDS011;38614;43.472;23.936;2024-02-26T05:44:33;35.50;;;17.88;;
41829;SDS011;38614;43.472;23.936;2024-02-26T05:47:20;33.30;;;18.55;;
41829;SDS011;38614;43.472;23.936;2024-02-26T05:50:11;31.75;;;17.05;;
41829;SDS011;38614;43.472;23.936;2024-02-26T05:53:01;37.58;;;19.52;;
41829;SDS011;38614;43.472;23.936;2024-02-26T05:55:48;33.20;;;18.27;;
41829;SDS011;38614;43.472;23.936;2024-02-26T05:58:36;40.88;;;19.80;;
41829;SDS011;38614;43.472;23.936;2024-02-26T06:01:24;46.72;;;18.30;;
41829;SDS011;38614;43.472;23.936;2024-02-26T06:04:13;40.70;;;18.63;;
41829;SDS011;38614;43.472;23.936;2024-02-26T06:07:00;51.13;;;19.17;;
41829;SDS011;38614;43.472;23.936;2024-02-26T06:09:48;33.42;;;16.52;;
41829;SDS011;38614;43.472;23.936;2024-02-26T06:12:35;41.95;;;17.05;;
41829;SDS011;38614;43.472;23.936;2024-02-26T06:15:23;37.75;;;17.73;;
41829;SDS011;38614;43.472;23.936;2024-02-26T06:18:11;34.08;;;16.35;;
41829;SDS011;38614;43.472;23.936;2024-02-26T06:20:59;34.53;;;16.38;;
41829;SDS011;38614;43.472;23.936;2024-02-26T06:23:46;39.80;;;17.95;;
41829;SDS011;38614;43.472;23.936;2024-02-26T06:26:35;42.53;;;17.35;;
41829;SDS011;38614;43.472;23.936;2024-02-26T06:29:22;28.15;;;14.90;;
41829;SDS011;38614;43.472;23.936;2024-02-26T06:32:10;30.88;;;15.27;;
41829;SDS011;38614;43.472;23.936;2024-02-26T06:34:58;27.00;;;14.73;;
41829;SDS011;38614;43.472;23.936;2024-02-26T06:37:46;27.38;;;14.05;;
41829;SDS011;38614;43.472;23.936;2024-02-26T06:40:34;29.67;;;12.85;;
41829;SDS011;38614;43.472;23.936;2024-02-26T06:43:21;24.85;;;13.88;;
41829;SDS011;38614;43.472;23.936;2024-02-26T06:46:09;23.95;;;13.23;;
41829;SDS011;38614;43.472;23.936;2024-02-26T06:48:57;29.20;;;12.70;;
41829;SDS011;38614;43.472;23.936;2024-02-26T06:51:45;32.13;;;13.20;;
41829;SDS011;38614;43.472;23.936;2024-02-26T06:54:32;30.95;;;14.07;;
41829;SDS011;38614;43.472;23.936;2024-02-26T06:57:20;30.02;;;16.20;;
41829;SDS011;38614;43.472;23.936;2024-02-26T07:00:09;30.40;;;14.82;;
41829;SDS011;38614;43.472;23.936;2024-02-26T07:03:02;27.10;;;14.95;;
41829;SDS011;38614;43.472;23.936;2024-02-26T07:05:49;35.22;;;15.35;;
41829;SDS011;38614;43.472;23.936;2024-02-26T07:08:37;35.85;;;16.40;;
41829;SDS011;38614;43.472;23.936;2024-02-26T07:11:26;35.55;;;16.80;;
41829;SDS011;38614;43.472;23.936;2024-02-26T07:14:13;37.78;;;17.25;;
41829;SDS011;38614;43.472;23.936;2024-02-26T07:17:01;29.33;;;14.60;;
41829;SDS011;38614;43.472;23.936;2024-02-26T07:19:49;39.40;;;17.63;;
41829;SDS011;38614;43.472;23.936;2024-02-26T07:22:37;34.67;;;16.27;;
41829;SDS011;38614;43.472;23.936;2024-02-26T07:25:24;31.60;;;16.70;;
41829;SDS011;38614;43.472;23.936;2024-02-26T07:28:12;39.55;;;18.13;;
41829;SDS011;38614;43.472;23.936;2024-02-26T07:31:00;42.17;;;21.30;;
41829;SDS011;38614;43.472;23.936;2024-02-26T07:33:48;30.15;;;16.77;;
41829;SDS011;38614;43.472;23.936;2024-02-26T07:36:35;42.70;;;20.73;;
41829;SDS011;38614;43.472;23.936;2024-02-26T07:39:23;29.52;;;16.50;;
41829;SDS011;38614;43.472;23.936;2024-02-26T07:42:11;33.42;;;16.48;;
41829;SDS011;38614;43.472;23.936;2024-02-26T07:44:59;28.60;;;15.20;;
41829;SDS011;38614;43.472;23.936;2024-02-26T07:47:47;29.23;;;16.50;;
41829;SDS011;38614;43.472;23.936;2024-02-26T07:50:34;33.75;;;16.70;;
41829;SDS011;38614;43.472;23.936;2024-02-26T07:53:22;33.15;;;16.20;;
41829;SDS011;38614;43.472;23.936;2024-02-26T07:56:10;33.60;;;16.60;;
41829;SDS011;38614;43.472;23.936;2024-02-26T07:58:58;31.25;;;15.70;;
41829;SDS011;38614;43.472;23.936;2024-02-26T08:01:49;28.38;;;15.82;;
41829;SDS011;38614;43.472;23.936;2024-02-26T08:04:42;29.40;;;14.65;;
41829;SDS011;38614;43.472;23.936;2024-02-26T08:07:30;33.88;;;17.98;;
41829;SDS011;38614;43.472;23.936;2024-02-26T08:10:17;26.10;;;14.65;;
41829;SDS011;38614;43.472;23.936;2024-02-26T08:13:05;27.50;;;13.27;;
41829;SDS011;38614;43.472;23.936;2024-02-26T08:15:53;25.20;;;14.40;;
41829;SDS011;38614;43.472;23.936;2024-02-26T08:18:40;27.70;;;14.40;;
41829;SDS011;38614;43.472;23.936;2024-02-26T08:21:28;29.13;;;14.85;;
41829;SDS011;38614;43.472;23.936;2024-02-26T08:24:16;37.40;;;17.65;;
41829;SDS011;38614;43.472;23.936;2024-02-26T08:27:04;29.02;;;16.20;;
41829;SDS011;38614;43.472;23.936;2024-02-26T08:29:52;40.65;;;15.18;;
41829;SDS011;38614;43.472;23.936;2024-02-26T08:32:39;28.08;;;15.43;;
41829;SDS011;38614;43.472;23.936;2024-02-26T08:35:27;23.67;;;13.55;;
41829;SDS011;38614;43.472;23.936;2024-02-26T08:38:15;32.38;;;15.20;;
41829;SDS011;38614;43.472;23.936;2024-02-26T08:41:04;25.77;;;15.82;;
41829;SDS011;38614;43.472;23.936;2024-02-26T08:43:51;30.05;;;14.50;;
41829;SDS011;38614;43.472;23.936;2024-02-26T08:46:40;31.63;;;15.98;;
41829;SDS011;38614;43.472;23.936;2024-02-26T08:49:28;27.65;;;15.30;;
41829;SDS011;38614;43.472;23.936;2024-02-26T08:52:16;31.63;;;15.80;;
41829;SDS011;38614;43.472;23.936;2024-02-26T08:55:03;35.03;;;14.25;;
41829;SDS011;38614;43.472;23.936;2024-02-26T08:57:52;25.88;;;15.77;;
41829;SDS011;38614;43.472;23.936;2024-02-26T09:00:40;31.48;;;15.48;;
41829;SDS011;38614;43.472;23.936;2024-02-26T09:03:28;29.70;;;16.48;;
41829;SDS011;38614;43.472;23.936;2024-02-26T09:06:16;34.35;;;16.30;;
41829;SDS011;38614;43.472;23.936;2024-02-26T09:09:04;27.70;;;14.63;;
41829;SDS011;38614;43.472;23.936;2024-02-26T09:11:51;32.80;;;15.73;;
41829;SDS011;38614;43.472;23.936;2024-02-26T09:14:39;27.10;;;14.90;;
41829;SDS011;38614;43.472;23.936;2024-02-26T09:17:27;24.08;;;13.63;;
41829;SDS011;38614;43.472;23.936;2024-02-26T09:20:14;18.67;;;12.30;;
41829;SDS011;38614;43.472;23.936;2024-02-26T09:23:02;24.00;;;13.82;;
41829;SDS011;38614;43.472;23.936;2024-02-26T09:25:51;23.10;;;13.15;;
41829;SDS011;38614;43.472;23.936;2024-02-26T09:28:38;29.98;;;14.57;;
41829;SDS011;38614;43.472;23.936;2024-02-26T09:31:26;23.73;;;14.30;;
41829;SDS011;38614;43.472;23.936;2024-02-26T09:34:14;26.42;;;13.50;;
41829;SDS011;38614;43.472;23.936;2024-02-26T09:37:02;28.10;;;13.98;;
41829;SDS011;38614;43.472;23.936;2024-02-26T09:40:01;33.15;;;15.35;;
41829;SDS011;38614;43.472;23.936;2024-02-26T09:42:50;24.63;;;13.88;;
41829;SDS011;38614;43.472;23.936;2024-02-26T09:45:40;22.45;;;13.63;;
41829;SDS011;38614;43.472;23.936;2024-02-26T09:48:29;23.13;;;13.32;;
41829;SDS011;38614;43.472;23.936;2024-02-26T09:51:17;27.73;;;14.45;;
41829;SDS011;38614;43.472;23.936;2024-02-26T09:54:07;26.20;;;13.77;;
41829;SDS011;38614;43.472;23.936;2024-02-26T09:56:55;25.77;;;14.07;;
41829;SDS011;38614;43.472;23.936;2024-02-26T09:59:51;23.27;;;13.50;;
41829;SDS011;38614;43.472;23.936;2024-02-26T10:02:40;28.70;;;11.73;;
41829;SDS011;38614;43.472;23.936;2024-02-26T10:05:28;22.77;;;12.43;;
41829;SDS011;38614;43.472;23.936;2024-02-26T10:08:17;26.20;;;12.98;;
41829;SDS011;38614;43.472;23.936;2024-02-26T10:11:09;24.17;;;14.25;;
41829;SDS011;38614;43.472;23.936;2024-02-26T10:13:57;19.83;;;12.45;;
41829;SDS011;38614;43.472;23.936;2024-02-26T10:16:45;18.23;;;11.70;;
41829;SDS011;38614;43.472;23.936;2024-02-26T10:19:32;24.98;;;14.15;;
41829;SDS011;38614;43.472;23.936;2024-02-26T10:22:24;27.35;;;14.57;;
41829;SDS011;38614;43.472;23.936;2024-02-26T10:25:14;23.05;;;12.40;;
41829;SDS011;38614;43.472;23.936;2024-02-26T10:28:02;39.08;;;19.33;;
41829;SDS011;38614;43.472;23.936;2024-02-26T10:30:51;34.75;;;14.45;;
41829;SDS011;38614;43.472;23.936;2024-02-26T10:33:39;23.92;;;13.43;;
41829;SDS011;38614;43.472;23.936;2024-02-26T10:36:33;22.20;;;13.40;;
41829;SDS011;38614;43.472;23.936;2024-02-26T10:39:36;25.67;;;12.35;;
41829;SDS011;38614;43.472;23.936;2024-02-26T10:42:25;28.60;;;13.65;;
41829;SDS011;38614;43.472;23.936;2024-02-26T10:45:13;29.13;;;14.23;;
41829;SDS011;38614;43.472;23.936;2024-02-26T10:48:01;27.98;;;13.35;;
41829;SDS011;38614;43.472;23.936;2024-02-26T10:50:49;30.88;;;13.48;;
41829;SDS011;38614;43.472;23.936;2024-02-26T10:53:37;27.05;;;13.73;;
41829;SDS011;38614;43.472;23.936;2024-02-26T10:56:26;21.50;;;12.85;;
41829;SDS011;38614;43.472;23.936;2024-02-26T10:59:15;22.85;;;12.20;;
41829;SDS011;38614;43.472;23.936;2024-02-26T11:02:08;21.00;;;12.98;;
41829;SDS011;38614;43.472;23.936;2024-02-26T11:04:57;25.38;;;12.98;;
41829;SDS011;38614;43.472;23.936;2024-02-26T11:07:45;36.30;;;16.17;;
41829;SDS011;38614;43.472;23.936;2024-02-26T11:10:34;26.40;;;14.20;;
41829;SDS011;38614;43.472;23.936;2024-02-26T11:13:23;22.70;;;13.27;;
41829;SDS011;38614;43.472;23.936;2024-02-26T11:16:14;30.90;;;15.30;;
41829;SDS011;38614;43.472;23.936;2024-02-26T11:19:02;25.45;;;13.93;;
41829;SDS011;38614;43.472;23.936;2024-02-26T11:21:50;22.65;;;12.25;;
41829;SDS011;38614;43.472;23.936;2024-02-26T11:24:38;27.92;;;13.82;;
41829;SDS011;38614;43.472;23.936;2024-02-26T11:27:33;22.20;;;12.48;;
41829;SDS011;38614;43.472;23.936;2024-02-26T11:30:22;22.73;;;12.75;;
41829;SDS011;38614;43.472;23.936;2024-02-26T11:33:10;24.08;;;13.23;;
41829;SDS011;38614;43.472;23.936;2024-02-26T11:36:00;30.05;;;13.93;;
41829;SDS011;38614;43.472;23.936;2024-02-26T11:38:48;22.73;;;13.07;;
41829;SDS011;38614;43.472;23.936;2024-02-26T11:41:38;22.83;;;12.00;;
41829;SDS011;38614;43.472;23.936;2024-02-26T11:44:29;21.90;;;11.02;;
41829;SDS011;38614;43.472;23.936;2024-02-26T11:47:21;22.88;;;13.27;;
41829;SDS011;38614;43.472;23.936;2024-02-26T11:53:35;28.67;;;14.13;;
41829;SDS011;38614;43.472;23.936;2024-02-26T11:56:33;25.27;;;13.25;;
41829;SDS011;38614;43.472;23.936;2024-02-26T11:59:37;27.08;;;13.05;;
41829;SDS011;38614;43.472;23.936;2024-02-26T12:02:41;34.75;;;13.70;;
41829;SDS011;38614;43.472;23.936;2024-02-26T12:05:32;32.30;;;13.88;;
41829;SDS011;38614;43.472;23.936;2024-02-26T12:08:20;27.17;;;14.15;;
41829;SDS011;38614;43.472;23.936;2024-02-26T12:11:16;25.58;;;11.73;;
41829;SDS011;38614;43.472;23.936;2024-02-26T12:14:05;25.75;;;13.40;;
41829;SDS011;38614;43.472;23.936;2024-02-26T12:16:52;24.95;;;14.10;;
41829;SDS011;38614;43.472;23.936;2024-02-26T12:19:40;21.67;;;13.85;;
41829;SDS011;38614;43.472;23.936;2024-02-26T12:22:30;19.98;;;12.85;;
41829;SDS011;38614;43.472;23.936;2024-02-26T12:25:19;25.25;;;12.98;;
41829;SDS011;38614;43.472;23.936;2024-02-26T12:28:07;28.52;;;13.25;;
41829;SDS011;38614;43.472;23.936;2024-02-26T12:30:54;22.38;;;13.00;;
41829;SDS011;38614;43.472;23.936;2024-02-26T12:33:42;21.88;;;12.85;;
41829;SDS011;38614;43.472;23.936;2024-02-26T12:36:30;27.58;;;14.48;;
41829;SDS011;38614;43.472;23.936;2024-02-26T12:39:18;29.67;;;14.18;;
41829;SDS011;38614;43.472;23.936;2024-02-26T12:42:07;23.65;;;13.77;;
41829;SDS011;38614;43.472;23.936;2024-02-26T12:44:55;25.77;;;14.55;;
41829;SDS011;38614;43.472;23.936;2024-02-26T12:47:43;24.38;;;13.20;;
41829;SDS011;38614;43.472;23.936;2024-02-26T12:50:31;32.03;;;15.02;;
41829;SDS011;38614;43.472;23.936;2024-02-26T12:53:19;27.95;;;13.98;;
41829;SDS011;38614;43.472;23.936;2024-02-26T12:56:07;26.05;;;14.68;;
41829;SDS011;38614;43.472;23.936;2024-02-26T12:58:55;31.17;;;14.63;;
41829;SDS011;38614;43.472;23.936;2024-02-26T13:01:43;30.27;;;13.80;;
41829;SDS011;38614;43.472;23.936;2024-02-26T13:04:31;21.63;;;12.65;;
41829;SDS011;38614;43.472;23.936;2024-02-26T13:07:20;21.35;;;12.05;;
41829;SDS011;38614;43.472;23.936;2024-02-26T13:10:08;23.25;;;10.75;;
41829;SDS011;38614;43.472;23.936;2024-02-26T13:12:56;19.73;;;9.63;;
41829;SDS011;38614;43.472;23.936;2024-02-26T13:15:44;29.65;;;8.73;;
41829;SDS011;38614;43.472;23.936;2024-02-26T13:18:32;21.13;;;9.45;;
41829;SDS011;38614;43.472;23.936;2024-02-26T13:21:20;17.98;;;9.45;;
41829;SDS011;38614;43.472;23.936;2024-02-26T13:24:12;15.50;;;9.38;;
41829;SDS011;38614;43.472;23.936;2024-02-26T13:27:00;19.02;;;8.77;;
41829;SDS011;38614;43.472;23.936;2024-02-26T13:30:03;19.23;;;9.25;;
41829;SDS011;38614;43.472;23.936;2024-02-26T13:32:54;15.52;;;8.68;;
41829;SDS011;38614;43.472;23.936;2024-02-26T13:35:42;18.33;;;8.43;;
41829;SDS011;38614;43.472;23.936;2024-02-26T13:38:30;19.80;;;10.10;;
41829;SDS011;38614;43.472;23.936;2024-02-26T13:41:18;16.90;;;8.88;;
41829;SDS011;38614;43.472;23.936;2024-02-26T13:44:05;14.45;;;8.13;;
41829;SDS011;38614;43.472;23.936;2024-02-26T13:46:53;14.20;;;8.23;;
41829;SDS011;38614;43.472;23.936;2024-02-26T13:49:41;15.30;;;8.63;;
41829;SDS011;38614;43.472;23.936;2024-02-26T13:52:29;16.50;;;8.82;;
41829;SDS011;38614;43.472;23.936;2024-02-26T13:55:19;13.93;;;7.57;;
41829;SDS011;38614;43.472;23.936;2024-02-26T13:58:08;25.95;;;9.07;;
41829;SDS011;38614;43.472;23.936;2024-02-26T14:00:57;14.30;;;7.93;;
41829;SDS011;38614;43.472;23.936;2024-02-26T14:03:47;18.15;;;8.60;;
41829;SDS011;38614;43.472;23.936;2024-02-26T14:06:34;14.82;;;7.97;;
41829;SDS011;38614;43.472;23.936;2024-02-26T14:09:22;12.50;;;7.80;;
41829;SDS011;38614;43.472;23.936;2024-02-26T14:12:21;13.80;;;7.60;;
41829;SDS011;38614;43.472;23.936;2024-02-26T14:15:11;13.25;;;8.20;;
41829;SDS011;38614;43.472;23.936;2024-02-26T14:17:59;15.00;;;8.20;;
41829;SDS011;38614;43.472;23.936;2024-02-26T14:20:47;14.15;;;8.48;;
41829;SDS011;38614;43.472;23.936;2024-02-26T14:23:35;18.73;;;9.18;;
41829;SDS011;38614;43.472;23.936;2024-02-26T14:26:23;15.32;;;8.70;;
41829;SDS011;38614;43.472;23.936;2024-02-26T14:29:11;14.50;;;7.30;;
41829;SDS011;38614;43.472;23.936;2024-02-26T14:31:59;14.57;;;7.45;;
41829;SDS011;38614;43.472;23.936;2024-02-26T14:34:47;25.92;;;9.98;;
41829;SDS011;38614;43.472;23.936;2024-02-26T14:37:35;26.30;;;8.90;;
41829;SDS011;38614;43.472;23.936;2024-02-26T14:40:23;21.13;;;9.63;;
41829;SDS011;38614;43.472;23.936;2024-02-26T14:43:10;14.15;;;7.57;;
41829;SDS011;38614;43.472;23.936;2024-02-26T14:45:59;17.88;;;8.05;;
41829;SDS011;38614;43.472;23.936;2024-02-26T14:48:47;11.93;;;7.38;;
41829;SDS011;38614;43.472;23.936;2024-02-26T14:51:35;15.18;;;6.93;;
41829;SDS011;38614;43.472;23.936;2024-02-26T14:54:23;22.30;;;8.38;;
41829;SDS011;38614;43.472;23.936;2024-02-26T14:57:10;16.10;;;7.25;;
41829;SDS011;38614;43.472;23.936;2024-02-26T14:59:58;14.38;;;8.68;;
41829;SDS011;38614;43.472;23.936;2024-02-26T15:02:46;12.95;;;8.32;;
41829;SDS011;38614;43.472;23.936;2024-02-26T15:05:34;13.30;;;7.95;;
41829;SDS011;38614;43.472;23.936;2024-02-26T15:08:22;18.20;;;8.40;;
41829;SDS011;38614;43.472;23.936;2024-02-26T15:11:10;16.85;;;7.53;;
41829;SDS011;38614;43.472;23.936;2024-02-26T15:13:57;17.50;;;8.40;;
41829;SDS011;38614;43.472;23.936;2024-02-26T15:16:45;17.75;;;9.45;;
41829;SDS011;38614;43.472;23.936;2024-02-26T15:19:33;21.85;;;8.10;;
41829;SDS011;38614;43.472;23.936;2024-02-26T15:22:21;19.42;;;8.68;;
41829;SDS011;38614;43.472;23.936;2024-02-26T15:25:09;19.60;;;9.70;;
41829;SDS011;38614;43.472;23.936;2024-02-26T15:28:01;19.65;;;9.20;;
41829;SDS011;38614;43.472;23.936;2024-02-26T15:30:50;22.70;;;11.40;;
41829;SDS011;38614;43.472;23.936;2024-02-26T15:33:38;40.60;;;18.55;;
41829;SDS011;38614;43.472;23.936;2024-02-26T15:36:25;34.97;;;14.48;;
41829;SDS011;38614;43.472;23.936;2024-02-26T15:39:13;29.02;;;12.43;;
41829;SDS011;38614;43.472;23.936;2024-02-26T15:42:03;18.48;;;9.80;;
41829;SDS011;38614;43.472;23.936;2024-02-26T15:44:51;18.48;;;10.07;;
41829;SDS011;38614;43.472;23.936;2024-02-26T15:47:40;18.38;;;9.48;;
41829;SDS011;38614;43.472;23.936;2024-02-26T15:50:28;17.27;;;9.15;;
41829;SDS011;38614;43.472;23.936;2024-02-26T15:53:16;18.85;;;9.45;;
41829;SDS011;38614;43.472;23.936;2024-02-26T15:56:03;20.30;;;9.45;;
41829;SDS011;38614;43.472;23.936;2024-02-26T15:58:53;23.17;;;9.45;;
41829;SDS011;38614;43.472;23.936;2024-02-26T16:01:40;22.13;;;9.43;;
41829;SDS011;38614;43.472;23.936;2024-02-26T16:04:29;27.23;;;10.70;;
41829;SDS011;38614;43.472;23.936;2024-02-26T16:07:38;22.38;;;11.32;;
41829;SDS011;38614;43.472;23.936;2024-02-26T16:10:24;22.10;;;12.32;;
41829;SDS011;38614;43.472;23.936;2024-02-26T16:13:16;43.20;;;15.63;;
41829;SDS011;38614;43.472;23.936;2024-02-26T16:16:12;28.30;;;14.93;;
41829;SDS011;38614;43.472;23.936;2024-02-26T16:19:07;31.38;;;15.68;;